Terminal Aerodrome Forecast
Issued by NWS Quad Cities IA IL

Home | Current Version | Previous Version | Text Only | Print | Product List | Glossary On
Versions: 1 2 3 4 5 6 7 8 9 10 11 12 13 14 15 16 17 18 19 20 21 22 23 24
022
FTUS43 KDVN 291927 AAA
TAFDBQ
TAF AMD
KDBQ 291927Z 2919/3018 04018G26KT P6SM -RA BKN070 OVC100
     FM292200 05016G25KT 5SM -SHRA BKN050 OVC100
      TEMPO 2922/2924 3SM SHRA BR BKN025
     FM300000 05018G26KT 6SM BR OVC012
     FM300200 05020G30KT 5SM BR OVC007 PROB30 3008/3012 4SM -SHRA=

USA.gov is the U.S. government's official web portal to all federal, state and local government web resources and services.